sensor_id;sensor_type;location;lat;lon;timestamp;temperature;humidity
67559;DHT22;54388;53.536;49.300;2023-05-29T00:00:10;23.10;79.50
67559;DHT22;54388;53.536;49.300;2023-05-29T00:02:42;23.00;79.20
67559;DHT22;54388;53.536;49.300;2023-05-29T00:05:13;23.00;79.50
67559;DHT22;54388;53.536;49.300;2023-05-29T00:07:43;23.00;81.00
67559;DHT22;54388;53.536;49.300;2023-05-29T00:10:18;22.90;81.00
67559;DHT22;54388;53.536;49.300;2023-05-29T00:12:50;22.80;81.10
67559;DHT22;54388;53.536;49.300;2023-05-29T00:15:23;22.80;81.90
67559;DHT22;54388;53.536;49.300;2023-05-29T00:17:57;22.80;81.90
67559;DHT22;54388;53.536;49.300;2023-05-29T00:20:27;22.70;81.80
67559;DHT22;54388;53.536;49.300;2023-05-29T00:22:58;22.70;82.00
67559;DHT22;54388;53.536;49.300;2023-05-29T00:25:27;22.60;82.80
67559;DHT22;54388;53.536;49.300;2023-05-29T00:27:57;22.60;83.10
67559;DHT22;54388;53.536;49.300;2023-05-29T00:30:28;22.60;83.30
67559;DHT22;54388;53.536;49.300;2023-05-29T00:33:00;22.50;84.00
67559;DHT22;54388;53.536;49.300;2023-05-29T00:35:29;22.50;83.80
67559;DHT22;54388;53.536;49.300;2023-05-29T00:37:57;22.50;84.10
67559;DHT22;54388;53.536;49.300;2023-05-29T00:40:26;22.50;84.00
67559;DHT22;54388;53.536;49.300;2023-05-29T00:42:55;22.40;84.30
67559;DHT22;54388;53.536;49.300;2023-05-29T00:45:24;22.40;84.50
67559;DHT22;54388;53.536;49.300;2023-05-29T00:47:56;22.40;84.70
67559;DHT22;54388;53.536;49.300;2023-05-29T00:50:25;22.30;85.30
67559;DHT22;54388;53.536;49.300;2023-05-29T00:52:54;22.30;85.90
67559;DHT22;54388;53.536;49.300;2023-05-29T00:55:26;22.20;86.50
67559;DHT22;54388;53.536;49.300;2023-05-29T00:57:57;22.20;86.90
67559;DHT22;54388;53.536;49.300;2023-05-29T01:00:29;22.20;87.40
67559;DHT22;54388;53.536;49.300;2023-05-29T01:03:02;22.20;87.90
67559;DHT22;54388;53.536;49.300;2023-05-29T01:05:38;22.20;87.80
67559;DHT22;54388;53.536;49.300;2023-05-29T01:08:09;22.20;87.70
67559;DHT22;54388;53.536;49.300;2023-05-29T01:10:39;22.30;87.20
67559;DHT22;54388;53.536;49.300;2023-05-29T01:13:11;22.30;86.90
67559;DHT22;54388;53.536;49.300;2023-05-29T01:16:21;22.30;86.70
67559;DHT22;54388;53.536;49.300;2023-05-29T01:21:20;22.20;87.20
67559;DHT22;54388;53.536;49.300;2023-05-29T01:24:17;22.30;87.50
67559;DHT22;54388;53.536;49.300;2023-05-29T01:27:12;22.30;88.80
67559;DHT22;54388;53.536;49.300;2023-05-29T01:29:48;22.30;89.40
67559;DHT22;54388;53.536;49.300;2023-05-29T01:32:22;22.30;89.30
67559;DHT22;54388;53.536;49.300;2023-05-29T01:34:55;22.30;89.60
67559;DHT22;54388;53.536;49.300;2023-05-29T01:37:26;22.30;89.50
67559;DHT22;54388;53.536;49.300;2023-05-29T01:39:56;22.30;89.50
67559;DHT22;54388;53.536;49.300;2023-05-29T01:42:28;22.30;89.70
67559;DHT22;54388;53.536;49.300;2023-05-29T01:44:57;22.30;89.50
67559;DHT22;54388;53.536;49.300;2023-05-29T01:47:26;22.30;89.20
67559;DHT22;54388;53.536;49.300;2023-05-29T01:49:58;22.30;88.60
67559;DHT22;54388;53.536;49.300;2023-05-29T01:52:34;22.30;88.60
67559;DHT22;54388;53.536;49.300;2023-05-29T01:55:07;22.30;88.40
67559;DHT22;54388;53.536;49.300;2023-05-29T01:57:36;22.30;87.90
67559;DHT22;54388;53.536;49.300;2023-05-29T02:00:12;22.30;87.70
67559;DHT22;54388;53.536;49.300;2023-05-29T02:02:46;22.30;87.40
67559;DHT22;54388;53.536;49.300;2023-05-29T02:05:15;22.30;87.30
67559;DHT22;54388;53.536;49.300;2023-05-29T02:07:48;22.30;87.60
67559;DHT22;54388;53.536;49.300;2023-05-29T02:10:20;22.30;87.30
67559;DHT22;54388;53.536;49.300;2023-05-29T02:12:51;22.30;87.50
67559;DHT22;54388;53.536;49.300;2023-05-29T02:15:24;22.40;87.20
67559;DHT22;54388;53.536;49.300;2023-05-29T02:17:55;22.40;87.20
67559;DHT22;54388;53.536;49.300;2023-05-29T02:20:31;22.40;87.30
67559;DHT22;54388;53.536;49.300;2023-05-29T02:23:03;22.40;88.10
67559;DHT22;54388;53.536;49.300;2023-05-29T02:25:31;22.40;88.10
67559;DHT22;54388;53.536;49.300;2023-05-29T02:28:03;22.40;87.70
67559;DHT22;54388;53.536;49.300;2023-05-29T02:30:33;22.40;87.30
67559;DHT22;54388;53.536;49.300;2023-05-29T02:33:02;22.50;86.90
67559;DHT22;54388;53.536;49.300;2023-05-29T02:35:29;22.50;86.60
67559;DHT22;54388;53.536;49.300;2023-05-29T02:38:00;22.60;86.40
67559;DHT22;54388;53.536;49.300;2023-05-29T02:40:32;22.60;86.10
67559;DHT22;54388;53.536;49.300;2023-05-29T02:43:01;22.60;85.40
67559;DHT22;54388;53.536;49.300;2023-05-29T02:45:30;22.70;84.30
67559;DHT22;54388;53.536;49.300;2023-05-29T02:48:00;22.80;83.50
67559;DHT22;54388;53.536;49.300;2023-05-29T02:50:29;22.80;82.80
67559;DHT22;54388;53.536;49.300;2023-05-29T02:52:58;22.90;82.00
67559;DHT22;54388;53.536;49.300;2023-05-29T02:55:30;23.00;81.30
67559;DHT22;54388;53.536;49.300;2023-05-29T02:58:05;23.00;81.20
67559;DHT22;54388;53.536;49.300;2023-05-29T03:00:39;23.10;80.40
67559;DHT22;54388;53.536;49.300;2023-05-29T03:03:08;23.20;79.30
67559;DHT22;54388;53.536;49.300;2023-05-29T03:05:39;23.30;78.20
67559;DHT22;54388;53.536;49.300;2023-05-29T03:08:11;23.40;77.20
67559;DHT22;54388;53.536;49.300;2023-05-29T03:10:40;23.50;76.20
67559;DHT22;54388;53.536;49.300;2023-05-29T03:13:13;23.60;72.90
67559;DHT22;54388;53.536;49.300;2023-05-29T03:15:40;23.80;70.90
67559;DHT22;54388;53.536;49.300;2023-05-29T03:18:09;24.00;69.00
67559;DHT22;54388;53.536;49.300;2023-05-29T03:20:38;24.30;65.50
67559;DHT22;54388;53.536;49.300;2023-05-29T03:23:08;24.60;61.40
67559;DHT22;54388;53.536;49.300;2023-05-29T03:25:37;24.90;57.40
67559;DHT22;54388;53.536;49.300;2023-05-29T03:28:07;25.20;54.80
67559;DHT22;54388;53.536;49.300;2023-05-29T03:30:39;25.50;53.40
67559;DHT22;54388;53.536;49.300;2023-05-29T03:33:08;25.90;51.00
67559;DHT22;54388;53.536;49.300;2023-05-29T03:35:42;26.10;49.30
67559;DHT22;54388;53.536;49.300;2023-05-29T03:38:14;26.30;48.00
67559;DHT22;54388;53.536;49.300;2023-05-29T03:40:40;26.50;46.80
67559;DHT22;54388;53.536;49.300;2023-05-29T03:43:10;26.70;46.20
67559;DHT22;54388;53.536;49.300;2023-05-29T03:45:36;26.90;45.50
67559;DHT22;54388;53.536;49.300;2023-05-29T03:48:03;27.00;44.70
67559;DHT22;54388;53.536;49.300;2023-05-29T03:50:32;27.20;44.10
67559;DHT22;54388;53.536;49.300;2023-05-29T03:53:02;27.50;43.10
67559;DHT22;54388;53.536;49.300;2023-05-29T03:55:31;27.70;42.20
67559;DHT22;54388;53.536;49.300;2023-05-29T03:58:01;28.00;40.90
67559;DHT22;54388;53.536;49.300;2023-05-29T04:00:32;28.30;39.90
67559;DHT22;54388;53.536;49.300;2023-05-29T04:03:01;28.60;39.10
67559;DHT22;54388;53.536;49.300;2023-05-29T04:05:30;28.80;37.80
67559;DHT22;54388;53.536;49.300;2023-05-29T04:08:02;28.90;36.90
67559;DHT22;54388;53.536;49.300;2023-05-29T04:10:33;29.10;36.40
67559;DHT22;54388;53.536;49.300;2023-05-29T04:13:01;29.30;35.60
67559;DHT22;54388;53.536;49.300;2023-05-29T04:15:28;29.50;34.80
67559;DHT22;54388;53.536;49.300;2023-05-29T04:17:57;29.70;34.50
67559;DHT22;54388;53.536;49.300;2023-05-29T04:20:26;30.00;33.90
67559;DHT22;54388;53.536;49.300;2023-05-29T04:22:53;30.30;32.90
67559;DHT22;54388;53.536;49.300;2023-05-29T04:25:20;30.50;31.70
67559;DHT22;54388;53.536;49.300;2023-05-29T04:27:49;30.80;31.20
67559;DHT22;54388;53.536;49.300;2023-05-29T04:30:18;31.10;30.50
67559;DHT22;54388;53.536;49.300;2023-05-29T04:32:45;31.50;30.00
67559;DHT22;54388;53.536;49.300;2023-05-29T04:35:15;31.80;30.00
67559;DHT22;54388;53.536;49.300;2023-05-29T04:37:42;32.20;30.00
67559;DHT22;54388;53.536;49.300;2023-05-29T04:40:10;32.50;29.90
67559;DHT22;54388;53.536;49.300;2023-05-29T04:42:38;32.70;29.60
67559;DHT22;54388;53.536;49.300;2023-05-29T04:45:08;33.00;29.80
67559;DHT22;54388;53.536;49.300;2023-05-29T04:47:38;33.20;30.00
67559;DHT22;54388;53.536;49.300;2023-05-29T04:50:13;33.50;29.80
67559;DHT22;54388;53.536;49.300;2023-05-29T04:52:40;33.70;29.40
67559;DHT22;54388;53.536;49.300;2023-05-29T04:55:08;34.00;28.90
67559;DHT22;54388;53.536;49.300;2023-05-29T04:57:37;34.20;28.50
67559;DHT22;54388;53.536;49.300;2023-05-29T05:00:06;34.40;28.20
67559;DHT22;54388;53.536;49.300;2023-05-29T05:02:37;34.70;27.90
67559;DHT22;54388;53.536;49.300;2023-05-29T05:05:04;34.90;27.70
67559;DHT22;54388;53.536;49.300;2023-05-29T05:07:31;35.20;27.20
67559;DHT22;54388;53.536;49.300;2023-05-29T05:10:02;35.30;26.90
67559;DHT22;54388;53.536;49.300;2023-05-29T05:12:29;35.50;25.80
67559;DHT22;54388;53.536;49.300;2023-05-29T05:15:01;35.80;25.50
67559;DHT22;54388;53.536;49.300;2023-05-29T05:17:30;35.90;25.50
67559;DHT22;54388;53.536;49.300;2023-05-29T05:19:57;36.00;25.30
67559;DHT22;54388;53.536;49.300;2023-05-29T05:22:26;36.20;24.40
67559;DHT22;54388;53.536;49.300;2023-05-29T05:24:52;36.30;24.00
67559;DHT22;54388;53.536;49.300;2023-05-29T05:27:23;36.40;24.20
67559;DHT22;54388;53.536;49.300;2023-05-29T05:29:50;36.40;23.50
67559;DHT22;54388;53.536;49.300;2023-05-29T05:32:17;36.50;23.30
67559;DHT22;54388;53.536;49.300;2023-05-29T05:34:44;36.60;23.30
67559;DHT22;54388;53.536;49.300;2023-05-29T05:37:14;36.70;24.20
67559;DHT22;54388;53.536;49.300;2023-05-29T05:39:43;36.80;23.40
67559;DHT22;54388;53.536;49.300;2023-05-29T05:42:10;36.80;23.40
67559;DHT22;54388;53.536;49.300;2023-05-29T05:44:39;36.80;23.40
67559;DHT22;54388;53.536;49.300;2023-05-29T05:47:06;36.80;22.90
67559;DHT22;54388;53.536;49.300;2023-05-29T05:49:36;36.80;22.90
67559;DHT22;54388;53.536;49.300;2023-05-29T05:52:05;36.80;22.80
67559;DHT22;54388;53.536;49.300;2023-05-29T05:54:32;36.80;22.70
67559;DHT22;54388;53.536;49.300;2023-05-29T05:56:59;36.90;22.50
67559;DHT22;54388;53.536;49.300;2023-05-29T05:59:27;37.00;22.50
67559;DHT22;54388;53.536;49.300;2023-05-29T06:01:53;37.20;22.00
67559;DHT22;54388;53.536;49.300;2023-05-29T06:04:22;37.40;21.60
67559;DHT22;54388;53.536;49.300;2023-05-29T06:06:49;37.60;21.10
67559;DHT22;54388;53.536;49.300;2023-05-29T06:09:16;37.70;20.80
67559;DHT22;54388;53.536;49.300;2023-05-29T06:11:43;37.80;20.40
67559;DHT22;54388;53.536;49.300;2023-05-29T06:14:10;37.90;19.90
67559;DHT22;54388;53.536;49.300;2023-05-29T06:16:37;38.20;18.90
67559;DHT22;54388;53.536;49.300;2023-05-29T06:19:04;38.50;18.90
67559;DHT22;54388;53.536;49.300;2023-05-29T06:21:31;38.80;18.40
67559;DHT22;54388;53.536;49.300;2023-05-29T06:24:01;39.10;17.60
67559;DHT22;54388;53.536;49.300;2023-05-29T06:26:28;39.40;17.00
67559;DHT22;54388;53.536;49.300;2023-05-29T06:28:55;39.70;16.60
67559;DHT22;54388;53.536;49.300;2023-05-29T06:31:27;39.80;17.10
67559;DHT22;54388;53.536;49.300;2023-05-29T06:33:55;40.00;15.00
67559;DHT22;54388;53.536;49.300;2023-05-29T06:36:23;40.20;14.70
67559;DHT22;54388;53.536;49.300;2023-05-29T06:38:50;40.40;14.70
67559;DHT22;54388;53.536;49.300;2023-05-29T06:41:17;40.50;14.70
67559;DHT22;54388;53.536;49.300;2023-05-29T06:43:44;40.60;14.90
67559;DHT22;54388;53.536;49.300;2023-05-29T06:46:14;40.60;14.50
67559;DHT22;54388;53.536;49.300;2023-05-29T06:48:41;40.90;13.60
67559;DHT22;54388;53.536;49.300;2023-05-29T06:51:08;41.30;13.20
67559;DHT22;54388;53.536;49.300;2023-05-29T06:53:36;41.60;12.70
67559;DHT22;54388;53.536;49.300;2023-05-29T06:56:05;41.90;12.40
67559;DHT22;54388;53.536;49.300;2023-05-29T06:58:33;42.30;12.40
67559;DHT22;54388;53.536;49.300;2023-05-29T07:01:00;42.60;12.60
67559;DHT22;54388;53.536;49.300;2023-05-29T07:03:30;42.80;12.70
67559;DHT22;54388;53.536;49.300;2023-05-29T07:05:59;42.90;12.10
67559;DHT22;54388;53.536;49.300;2023-05-29T07:08:27;43.00;12.10
67559;DHT22;54388;53.536;49.300;2023-05-29T07:10:55;43.10;12.10
67559;DHT22;54388;53.536;49.300;2023-05-29T07:13:22;43.10;12.00
67559;DHT22;54388;53.536;49.300;2023-05-29T07:15:51;43.10;12.00
67559;DHT22;54388;53.536;49.300;2023-05-29T07:18:20;43.30;12.00
67559;DHT22;54388;53.536;49.300;2023-05-29T07:20:47;43.40;12.10
67559;DHT22;54388;53.536;49.300;2023-05-29T07:23:16;43.50;12.00
67559;DHT22;54388;53.536;49.300;2023-05-29T07:25:43;43.50;12.00
67559;DHT22;54388;53.536;49.300;2023-05-29T07:28:10;43.40;12.10
67559;DHT22;54388;53.536;49.300;2023-05-29T07:30:39;43.40;12.30
67559;DHT22;54388;53.536;49.300;2023-05-29T07:33:06;43.40;12.40
67559;DHT22;54388;53.536;49.300;2023-05-29T07:35:33;43.50;12.60
67559;DHT22;54388;53.536;49.300;2023-05-29T07:38:00;43.60;12.60
67559;DHT22;54388;53.536;49.300;2023-05-29T07:40:27;43.80;12.50
67559;DHT22;54388;53.536;49.300;2023-05-29T07:42:56;43.90;12.20
67559;DHT22;54388;53.536;49.300;2023-05-29T07:45:23;44.00;12.30
67559;DHT22;54388;53.536;49.300;2023-05-29T07:47:50;43.90;12.40
67559;DHT22;54388;53.536;49.300;2023-05-29T07:50:21;43.90;12.60
67559;DHT22;54388;53.536;49.300;2023-05-29T07:52:50;43.80;12.70
67559;DHT22;54388;53.536;49.300;2023-05-29T07:55:17;43.80;12.50
67559;DHT22;54388;53.536;49.300;2023-05-29T07:57:46;43.80;12.30
67559;DHT22;54388;53.536;49.300;2023-05-29T08:00:15;43.70;12.20
67559;DHT22;54388;53.536;49.300;2023-05-29T08:02:42;43.70;12.20
67559;DHT22;54388;53.536;49.300;2023-05-29T08:05:14;43.60;12.40
67559;DHT22;54388;53.536;49.300;2023-05-29T08:07:44;43.60;12.40
67559;DHT22;54388;53.536;49.300;2023-05-29T08:10:11;43.70;12.50
67559;DHT22;54388;53.536;49.300;2023-05-29T08:12:38;43.80;12.30
67559;DHT22;54388;53.536;49.300;2023-05-29T08:15:08;43.70;12.20
67559;DHT22;54388;53.536;49.300;2023-05-29T08:17:38;43.50;12.30
67559;DHT22;54388;53.536;49.300;2023-05-29T08:20:08;43.50;12.60
67559;DHT22;54388;53.536;49.300;2023-05-29T08:22:38;43.30;12.70
67559;DHT22;54388;53.536;49.300;2023-05-29T08:25:11;43.30;12.70
67559;DHT22;54388;53.536;49.300;2023-05-29T08:27:37;43.30;12.60
67559;DHT22;54388;53.536;49.300;2023-05-29T08:30:05;43.30;12.40
67559;DHT22;54388;53.536;49.300;2023-05-29T08:32:34;43.40;12.30
67559;DHT22;54388;53.536;49.300;2023-05-29T08:35:01;43.50;12.10
67559;DHT22;54388;53.536;49.300;2023-05-29T08:37:35;43.40;12.00
67559;DHT22;54388;53.536;49.300;2023-05-29T08:40:05;43.50;12.20
67559;DHT22;54388;53.536;49.300;2023-05-29T08:42:47;43.40;12.10
67559;DHT22;54388;53.536;49.300;2023-05-29T08:45:16;43.40;12.20
67559;DHT22;54388;53.536;49.300;2023-05-29T08:47:46;43.40;12.10
67559;DHT22;54388;53.536;49.300;2023-05-29T08:50:17;43.30;12.20
67559;DHT22;54388;53.536;49.300;2023-05-29T08:52:44;43.30;12.20
67559;DHT22;54388;53.536;49.300;2023-05-29T08:55:15;43.30;12.10
67559;DHT22;54388;53.536;49.300;2023-05-29T08:57:45;43.30;12.10
67559;DHT22;54388;53.536;49.300;2023-05-29T09:00:13;43.30;12.20
67559;DHT22;54388;53.536;49.300;2023-05-29T09:02:42;43.30;12.20
67559;DHT22;54388;53.536;49.300;2023-05-29T09:05:14;43.10;12.20
67559;DHT22;54388;53.536;49.300;2023-05-29T09:07:44;43.00;12.40
67559;DHT22;54388;53.536;49.300;2023-05-29T09:10:14;42.90;12.50
67559;DHT22;54388;53.536;49.300;2023-05-29T09:12:41;42.80;12.70
67559;DHT22;54388;53.536;49.300;2023-05-29T09:15:17;42.80;12.80
67559;DHT22;54388;53.536;49.300;2023-05-29T09:17:58;42.80;12.80
67559;DHT22;54388;53.536;49.300;2023-05-29T09:20:27;42.90;12.70
67559;DHT22;54388;53.536;49.300;2023-05-29T09:23:03;42.90;12.60
67559;DHT22;54388;53.536;49.300;2023-05-29T09:25:34;42.90;12.60
67559;DHT22;54388;53.536;49.300;2023-05-29T09:28:08;42.80;12.70
67559;DHT22;54388;53.536;49.300;2023-05-29T09:30:36;42.60;12.80
67559;DHT22;54388;53.536;49.300;2023-05-29T09:33:09;42.70;12.80
67559;DHT22;54388;53.536;49.300;2023-05-29T09:35:46;42.70;12.90
67559;DHT22;54388;53.536;49.300;2023-05-29T09:38:18;42.80;13.00
67559;DHT22;54388;53.536;49.300;2023-05-29T09:40:48;42.90;12.90
67559;DHT22;54388;53.536;49.300;2023-05-29T09:43:18;42.90;12.70
67559;DHT22;54388;53.536;49.300;2023-05-29T09:45:49;42.80;12.90
67559;DHT22;54388;53.536;49.300;2023-05-29T09:48:23;42.80;12.90
67559;DHT22;54388;53.536;49.300;2023-05-29T09:50:50;42.80;12.90
67559;DHT22;54388;53.536;49.300;2023-05-29T09:53:24;42.70;13.00
67559;DHT22;54388;53.536;49.300;2023-05-29T09:55:52;42.70;13.10
67559;DHT22;54388;53.536;49.300;2023-05-29T09:58:20;42.70;13.10
67559;DHT22;54388;53.536;49.300;2023-05-29T10:00:47;42.60;13.20
67559;DHT22;54388;53.536;49.300;2023-05-29T10:03:18;42.40;13.20
67559;DHT22;54388;53.536;49.300;2023-05-29T10:05:50;42.40;13.30
67559;DHT22;54388;53.536;49.300;2023-05-29T10:08:21;42.20;13.30
67559;DHT22;54388;53.536;49.300;2023-05-29T10:11:08;42.20;13.40
67559;DHT22;54388;53.536;49.300;2023-05-29T10:13:42;42.20;13.50
67559;DHT22;54388;53.536;49.300;2023-05-29T10:16:15;42.40;13.50
67559;DHT22;54388;53.536;49.300;2023-05-29T10:18:53;42.60;13.20
67559;DHT22;54388;53.536;49.300;2023-05-29T10:21:21;42.80;13.10
67559;DHT22;54388;53.536;49.300;2023-05-29T10:23:50;42.90;13.00
67559;DHT22;54388;53.536;49.300;2023-05-29T10:26:29;42.90;12.90
67559;DHT22;54388;53.536;49.300;2023-05-29T10:29:05;42.70;13.00
67559;DHT22;54388;53.536;49.300;2023-05-29T10:34:33;42.40;13.50
67559;DHT22;54388;53.536;49.300;2023-05-29T10:37:19;42.30;13.50
67559;DHT22;54388;53.536;49.300;2023-05-29T10:39:49;42.20;13.40
67559;DHT22;54388;53.536;49.300;2023-05-29T10:42:51;42.20;13.40
67559;DHT22;54388;53.536;49.300;2023-05-29T10:50:55;41.80;13.60
67559;DHT22;54388;53.536;49.300;2023-05-29T10:53:31;41.70;13.70
67559;DHT22;54388;53.536;49.300;2023-05-29T10:56:01;41.90;14.40
67559;DHT22;54388;53.536;49.300;2023-05-29T10:58:30;42.10;13.40
67559;DHT22;54388;53.536;49.300;2023-05-29T11:00:59;42.00;13.30
67559;DHT22;54388;53.536;49.300;2023-05-29T11:03:35;41.90;13.40
67559;DHT22;54388;53.536;49.300;2023-05-29T11:06:05;41.90;13.60
67559;DHT22;54388;53.536;49.300;2023-05-29T11:08:45;41.80;13.70
67559;DHT22;54388;53.536;49.300;2023-05-29T11:11:38;41.90;13.50
67559;DHT22;54388;53.536;49.300;2023-05-29T11:14:08;41.80;13.60
67559;DHT22;54388;53.536;49.300;2023-05-29T11:16:38;41.80;13.60
67559;DHT22;54388;53.536;49.300;2023-05-29T11:19:11;41.80;13.50
67559;DHT22;54388;53.536;49.300;2023-05-29T11:24:23;42.20;13.40
67559;DHT22;54388;53.536;49.300;2023-05-29T11:26:52;42.50;13.40
67559;DHT22;54388;53.536;49.300;2023-05-29T11:29:28;42.70;13.30
67559;DHT22;54388;53.536;49.300;2023-05-29T11:32:02;43.00;13.10
67559;DHT22;54388;53.536;49.300;2023-05-29T11:34:33;43.20;13.00
67559;DHT22;54388;53.536;49.300;2023-05-29T11:37:02;43.40;12.90
67559;DHT22;54388;53.536;49.300;2023-05-29T11:39:29;43.60;12.90
67559;DHT22;54388;53.536;49.300;2023-05-29T11:42:00;43.80;12.70
67559;DHT22;54388;53.536;49.300;2023-05-29T11:44:28;43.90;12.50
67559;DHT22;54388;53.536;49.300;2023-05-29T11:47:02;44.10;12.50
67559;DHT22;54388;53.536;49.300;2023-05-29T11:49:36;44.20;12.50
67559;DHT22;54388;53.536;49.300;2023-05-29T11:52:10;44.30;12.40
67559;DHT22;54388;53.536;49.300;2023-05-29T11:54:37;44.60;12.30
67559;DHT22;54388;53.536;49.300;2023-05-29T11:57:04;44.80;12.00
67559;DHT22;54388;53.536;49.300;2023-05-29T11:59:35;45.10;11.90
67559;DHT22;54388;53.536;49.300;2023-05-29T12:02:04;45.40;11.70
67559;DHT22;54388;53.536;49.300;2023-05-29T12:04:31;45.60;11.50
67559;DHT22;54388;53.536;49.300;2023-05-29T12:06:58;45.70;12.10
67559;DHT22;54388;53.536;49.300;2023-05-29T12:09:31;45.90;11.20
67559;DHT22;54388;53.536;49.300;2023-05-29T12:12:05;46.00;10.90
67559;DHT22;54388;53.536;49.300;2023-05-29T12:14:33;46.30;11.00
67559;DHT22;54388;53.536;49.300;2023-05-29T12:17:02;46.50;10.80
67559;DHT22;54388;53.536;49.300;2023-05-29T12:19:36;46.60;10.50
67559;DHT22;54388;53.536;49.300;2023-05-29T12:22:09;46.80;10.50
67559;DHT22;54388;53.536;49.300;2023-05-29T12:24:41;47.00;10.50
67559;DHT22;54388;53.536;49.300;2023-05-29T12:27:10;47.00;10.20
67559;DHT22;54388;53.536;49.300;2023-05-29T12:29:39;47.00;9.90
67559;DHT22;54388;53.536;49.300;2023-05-29T12:32:10;47.20;9.70
67559;DHT22;54388;53.536;49.300;2023-05-29T12:34:36;47.30;9.70
67559;DHT22;54388;53.536;49.300;2023-05-29T12:37:07;47.30;9.60
67559;DHT22;54388;53.536;49.300;2023-05-29T12:39:36;47.30;9.40
67559;DHT22;54388;53.536;49.300;2023-05-29T12:42:08;47.30;9.30
67559;DHT22;54388;53.536;49.300;2023-05-29T12:44:38;47.50;9.30
67559;DHT22;54388;53.536;49.300;2023-05-29T12:47:05;47.60;9.20
67559;DHT22;54388;53.536;49.300;2023-05-29T12:49:36;47.60;9.10
67559;DHT22;54388;53.536;49.300;2023-05-29T12:52:06;47.60;8.90
67559;DHT22;54388;53.536;49.300;2023-05-29T12:54:34;47.60;8.90
67559;DHT22;54388;53.536;49.300;2023-05-29T12:57:01;47.60;8.80
67559;DHT22;54388;53.536;49.300;2023-05-29T12:59:28;47.60;8.80
67559;DHT22;54388;53.536;49.300;2023-05-29T13:01:58;47.60;8.90
67559;DHT22;54388;53.536;49.300;2023-05-29T13:04:25;47.50;9.00
67559;DHT22;54388;53.536;49.300;2023-05-29T13:06:52;47.40;8.80
67559;DHT22;54388;53.536;49.300;2023-05-29T13:09:19;47.40;8.60
67559;DHT22;54388;53.536;49.300;2023-05-29T13:11:48;47.50;8.60
67559;DHT22;54388;53.536;49.300;2023-05-29T13:14:15;47.60;8.60
67559;DHT22;54388;53.536;49.300;2023-05-29T13:16:45;47.50;8.60
67559;DHT22;54388;53.536;49.300;2023-05-29T13:19:12;47.40;8.60
67559;DHT22;54388;53.536;49.300;2023-05-29T13:21:39;47.20;8.60
67559;DHT22;54388;53.536;49.300;2023-05-29T13:24:07;47.10;8.60
67559;DHT22;54388;53.536;49.300;2023-05-29T13:26:36;47.10;8.60
67559;DHT22;54388;53.536;49.300;2023-05-29T13:29:06;46.90;8.60
67559;DHT22;54388;53.536;49.300;2023-05-29T13:31:36;46.80;9.50
67559;DHT22;54388;53.536;49.300;2023-05-29T13:34:02;46.60;8.70
67559;DHT22;54388;53.536;49.300;2023-05-29T13:36:29;46.40;8.70
67559;DHT22;54388;53.536;49.300;2023-05-29T13:38:57;46.10;8.70
67559;DHT22;54388;53.536;49.300;2023-05-29T13:41:24;45.90;8.70
67559;DHT22;54388;53.536;49.300;2023-05-29T13:43:51;45.70;8.80
67559;DHT22;54388;53.536;49.300;2023-05-29T13:46:20;45.50;8.80
67559;DHT22;54388;53.536;49.300;2023-05-29T13:48:47;45.30;8.80
67559;DHT22;54388;53.536;49.300;2023-05-29T13:51:14;45.20;8.90
67559;DHT22;54388;53.536;49.300;2023-05-29T13:53:41;45.00;9.00
67559;DHT22;54388;53.536;49.300;2023-05-29T13:56:08;45.00;9.00
67559;DHT22;54388;53.536;49.300;2023-05-29T13:58:35;44.90;9.00
67559;DHT22;54388;53.536;49.300;2023-05-29T14:01:04;44.80;8.90
67559;DHT22;54388;53.536;49.300;2023-05-29T14:03:37;44.80;8.90
67559;DHT22;54388;53.536;49.300;2023-05-29T14:06:07;44.80;8.80
67559;DHT22;54388;53.536;49.300;2023-05-29T14:08:34;44.90;8.80
67559;DHT22;54388;53.536;49.300;2023-05-29T14:11:01;44.80;8.90
67559;DHT22;54388;53.536;49.300;2023-05-29T14:13:32;44.70;8.80
67559;DHT22;54388;53.536;49.300;2023-05-29T14:15:59;44.50;8.90
67559;DHT22;54388;53.536;49.300;2023-05-29T14:18:26;44.30;9.00
67559;DHT22;54388;53.536;49.300;2023-05-29T14:20:55;44.10;9.10
67559;DHT22;54388;53.536;49.300;2023-05-29T14:23:24;44.00;9.20
67559;DHT22;54388;53.536;49.300;2023-05-29T14:25:51;43.70;9.30
67559;DHT22;54388;53.536;49.300;2023-05-29T14:28:18;43.50;9.20
67559;DHT22;54388;53.536;49.300;2023-05-29T14:30:45;43.40;9.20
67559;DHT22;54388;53.536;49.300;2023-05-29T14:33:12;43.30;9.20
67559;DHT22;54388;53.536;49.300;2023-05-29T14:35:39;43.30;9.40
67559;DHT22;54388;53.536;49.300;2023-05-29T14:38:08;43.30;9.60
67559;DHT22;54388;53.536;49.300;2023-05-29T14:40:35;43.20;9.50
67559;DHT22;54388;53.536;49.300;2023-05-29T14:43:05;43.10;9.50
67559;DHT22;54388;53.536;49.300;2023-05-29T14:45:32;43.10;9.40
67559;DHT22;54388;53.536;49.300;2023-05-29T14:48:02;43.00;9.50
67559;DHT22;54388;53.536;49.300;2023-05-29T14:50:32;42.90;9.70
67559;DHT22;54388;53.536;49.300;2023-05-29T14:53:01;42.70;9.90
67559;DHT22;54388;53.536;49.300;2023-05-29T14:55:28;42.50;10.00
67559;DHT22;54388;53.536;49.300;2023-05-29T14:57:59;42.30;10.10
67559;DHT22;54388;53.536;49.300;2023-05-29T15:00:31;42.00;10.10
67559;DHT22;54388;53.536;49.300;2023-05-29T15:02:58;41.70;10.20
67559;DHT22;54388;53.536;49.300;2023-05-29T15:05:29;41.50;10.50
67559;DHT22;54388;53.536;49.300;2023-05-29T15:07:56;41.30;10.60
67559;DHT22;54388;53.536;49.300;2023-05-29T15:10:27;41.10;10.80
67559;DHT22;54388;53.536;49.300;2023-05-29T15:12:56;40.90;10.80
67559;DHT22;54388;53.536;49.300;2023-05-29T15:15:30;40.70;11.00
67559;DHT22;54388;53.536;49.300;2023-05-29T15:18:00;40.50;11.10
67559;DHT22;54388;53.536;49.300;2023-05-29T15:20:27;40.30;11.20
67559;DHT22;54388;53.536;49.300;2023-05-29T15:22:56;40.20;11.30
67559;DHT22;54388;53.536;49.300;2023-05-29T15:25:29;40.00;11.40
67559;DHT22;54388;53.536;49.300;2023-05-29T15:27:56;39.80;11.60
67559;DHT22;54388;53.536;49.300;2023-05-29T15:30:23;39.70;11.70
67559;DHT22;54388;53.536;49.300;2023-05-29T15:32:49;39.60;12.00
67559;DHT22;54388;53.536;49.300;2023-05-29T15:35:16;39.40;12.00
67559;DHT22;54388;53.536;49.300;2023-05-29T15:37:45;39.20;12.10
67559;DHT22;54388;53.536;49.300;2023-05-29T15:40:12;39.10;12.40
67559;DHT22;54388;53.536;49.300;2023-05-29T15:42:39;38.90;12.50
67559;DHT22;54388;53.536;49.300;2023-05-29T15:45:09;38.60;12.60
67559;DHT22;54388;53.536;49.300;2023-05-29T15:47:36;38.40;12.90